sensor_id;sensor_type;location;lat;lon;timestamp;P1;P2;P0
57289;PMS5003;43523;53.022;-1.178;2023-06-22T00:00:22;9;8;
57289;PMS5003;43523;53.022;-1.178;2023-06-22T00:01:24;9;7;
57289;PMS5003;43523;53.022;-1.178;2023-06-22T00:02:27;10;9;
57289;PMS5003;43523;53.022;-1.178;2023-06-22T00:03:30;9;9;
57289;PMS5003;43523;53.022;-1.178;2023-06-22T00:04:32;10;8;
57289;PMS5003;43523;53.022;-1.178;2023-06-22T00:05:35;8;8;
57289;PMS5003;43523;53.022;-1.178;2023-06-22T00:06:38;7;7;
57289;PMS5003;43523;53.022;-1.178;2023-06-22T00:07:41;7;7;
57289;PMS5003;43523;53.022;-1.178;2023-06-22T00:08:43;10;9;
57289;PMS5003;43523;53.022;-1.178;2023-06-22T00:09:45;8;8;
57289;PMS5003;43523;53.022;-1.178;2023-06-22T00:10:47;12;9;
57289;PMS5003;43523;53.022;-1.178;2023-06-22T00:11:50;8;8;
57289;PMS5003;43523;53.022;-1.178;2023-06-22T00:12:52;8;6;
57289;PMS5003;43523;53.022;-1.178;2023-06-22T00:13:54;8;7;
57289;PMS5003;43523;53.022;-1.178;2023-06-22T00:14:57;7;7;
57289;PMS5003;43523;53.022;-1.178;2023-06-22T00:15:59;8;8;
57289;PMS5003;43523;53.022;-1.178;2023-06-22T00:17:01;7;7;
57289;PMS5003;43523;53.022;-1.178;2023-06-22T00:18:04;8;7;
57289;PMS5003;43523;53.022;-1.178;2023-06-22T00:19:06;11;9;
57289;PMS5003;43523;53.022;-1.178;2023-06-22T00:20:09;9;9;
57289;PMS5003;43523;53.022;-1.178;2023-06-22T00:21:12;7;7;
57289;PMS5003;43523;53.022;-1.178;2023-06-22T00:22:14;9;6;
57289;PMS5003;43523;53.022;-1.178;2023-06-22T00:23:16;8;8;
57289;PMS5003;43523;53.022;-1.178;2023-06-22T00:24:19;10;7;
57289;PMS5003;43523;53.022;-1.178;2023-06-22T00:25:23;10;9;
57289;PMS5003;43523;53.022;-1.178;2023-06-22T00:26:26;5;5;
57289;PMS5003;43523;53.022;-1.178;2023-06-22T00:27:28;7;7;
57289;PMS5003;43523;53.022;-1.178;2023-06-22T00:28:30;8;7;
57289;PMS5003;43523;53.022;-1.178;2023-06-22T00:29:32;7;7;
57289;PMS5003;43523;53.022;-1.178;2023-06-22T00:30:35;9;8;
57289;PMS5003;43523;53.022;-1.178;2023-06-22T00:31:37;7;7;
57289;PMS5003;43523;53.022;-1.178;2023-06-22T00:32:41;8;7;
57289;PMS5003;43523;53.022;-1.178;2023-06-22T00:33:43;7;7;
57289;PMS5003;43523;53.022;-1.178;2023-06-22T00:34:46;10;8;
57289;PMS5003;43523;53.022;-1.178;2023-06-22T00:35:48;10;8;
57289;PMS5003;43523;53.022;-1.178;2023-06-22T00:36:50;8;7;
57289;PMS5003;43523;53.022;-1.178;2023-06-22T00:37:52;9;7;
57289;PMS5003;43523;53.022;-1.178;2023-06-22T00:38:55;7;7;
57289;PMS5003;43523;53.022;-1.178;2023-06-22T00:39:57;9;6;
57289;PMS5003;43523;53.022;-1.178;2023-06-22T00:40:59;8;8;
57289;PMS5003;43523;53.022;-1.178;2023-06-22T00:42:02;10;9;
57289;PMS5003;43523;53.022;-1.178;2023-06-22T00:43:05;5;5;
57289;PMS5003;43523;53.022;-1.178;2023-06-22T00:44:08;8;7;
57289;PMS5003;43523;53.022;-1.178;2023-06-22T00:45:10;5;5;
57289;PMS5003;43523;53.022;-1.178;2023-06-22T00:46:14;9;6;
57289;PMS5003;43523;53.022;-1.178;2023-06-22T00:47:17;4;4;
57289;PMS5003;43523;53.022;-1.178;2023-06-22T00:48:20;6;6;
57289;PMS5003;43523;53.022;-1.178;2023-06-22T00:49:22;7;6;
57289;PMS5003;43523;53.022;-1.178;2023-06-22T00:50:25;8;7;
57289;PMS5003;43523;53.022;-1.178;2023-06-22T00:51:30;6;6;
57289;PMS5003;43523;53.022;-1.178;2023-06-22T00:52:33;6;6;
57289;PMS5003;43523;53.022;-1.178;2023-06-22T00:53:37;10;7;
57289;PMS5003;43523;53.022;-1.178;2023-06-22T00:54:40;10;9;
57289;PMS5003;43523;53.022;-1.178;2023-06-22T00:55:44;7;7;
57289;PMS5003;43523;53.022;-1.178;2023-06-22T00:56:47;6;6;
57289;PMS5003;43523;53.022;-1.178;2023-06-22T00:57:50;8;8;
57289;PMS5003;43523;53.022;-1.178;2023-06-22T00:58:53;8;7;
57289;PMS5003;43523;53.022;-1.178;2023-06-22T01:00:01;10;7;
57289;PMS5003;43523;53.022;-1.178;2023-06-22T01:01:04;9;8;
57289;PMS5003;43523;53.022;-1.178;2023-06-22T01:02:07;5;5;
57289;PMS5003;43523;53.022;-1.178;2023-06-22T01:03:09;7;7;
57289;PMS5003;43523;53.022;-1.178;2023-06-22T01:04:17;7;6;
57289;PMS5003;43523;53.022;-1.178;2023-06-22T01:05:19;8;7;
57289;PMS5003;43523;53.022;-1.178;2023-06-22T01:06:25;8;7;
57289;PMS5003;43523;53.022;-1.178;2023-06-22T01:07:35;7;7;
57289;PMS5003;43523;53.022;-1.178;2023-06-22T01:08:43;5;5;
57289;PMS5003;43523;53.022;-1.178;2023-06-22T01:09:51;7;7;
57289;PMS5003;43523;53.022;-1.178;2023-06-22T01:11:01;8;7;
57289;PMS5003;43523;53.022;-1.178;2023-06-22T01:12:09;8;7;
57289;PMS5003;43523;53.022;-1.178;2023-06-22T01:13:16;9;7;
57289;PMS5003;43523;53.022;-1.178;2023-06-22T01:14:28;8;6;
57289;PMS5003;43523;53.022;-1.178;2023-06-22T01:15:40;9;8;
57289;PMS5003;43523;53.022;-1.178;2023-06-22T01:16:47;10;7;
57289;PMS5003;43523;53.022;-1.178;2023-06-22T01:17:53;10;8;
57289;PMS5003;43523;53.022;-1.178;2023-06-22T01:19:00;8;7;
57289;PMS5003;43523;53.022;-1.178;2023-06-22T01:20:12;7;7;
57289;PMS5003;43523;53.022;-1.178;2023-06-22T01:21:16;8;8;
57289;PMS5003;43523;53.022;-1.178;2023-06-22T01:22:21;6;6;
57289;PMS5003;43523;53.022;-1.178;2023-06-22T01:23:29;8;7;
57289;PMS5003;43523;53.022;-1.178;2023-06-22T01:24:41;9;7;
57289;PMS5003;43523;53.022;-1.178;2023-06-22T01:25:59;7;7;
57289;PMS5003;43523;53.022;-1.178;2023-06-22T01:27:15;11;8;
57289;PMS5003;43523;53.022;-1.178;2023-06-22T01:28:58;9;7;
57289;PMS5003;43523;53.022;-1.178;2023-06-22T01:30:04;5;5;
57289;PMS5003;43523;53.022;-1.178;2023-06-22T01:31:08;6;6;
57289;PMS5003;43523;53.022;-1.178;2023-06-22T01:32:14;9;9;
57289;PMS5003;43523;53.022;-1.178;2023-06-22T01:33:17;7;7;
57289;PMS5003;43523;53.022;-1.178;2023-06-22T01:34:20;7;7;
57289;PMS5003;43523;53.022;-1.178;2023-06-22T01:35:25;10;10;
57289;PMS5003;43523;53.022;-1.178;2023-06-22T01:36:28;9;7;
57289;PMS5003;43523;53.022;-1.178;2023-06-22T01:37:34;11;7;
57289;PMS5003;43523;53.022;-1.178;2023-06-22T01:38:39;9;7;
57289;PMS5003;43523;53.022;-1.178;2023-06-22T01:39:41;7;7;
57289;PMS5003;43523;53.022;-1.178;2023-06-22T01:40:45;11;8;
57289;PMS5003;43523;53.022;-1.178;2023-06-22T01:41:47;7;7;
57289;PMS5003;43523;53.022;-1.178;2023-06-22T01:42:50;8;6;
57289;PMS5003;43523;53.022;-1.178;2023-06-22T01:43:53;8;7;
57289;PMS5003;43523;53.022;-1.178;2023-06-22T01:44:57;8;8;
57289;PMS5003;43523;53.022;-1.178;2023-06-22T01:46:01;8;7;
57289;PMS5003;43523;53.022;-1.178;2023-06-22T01:47:05;10;7;
57289;PMS5003;43523;53.022;-1.178;2023-06-22T01:48:08;8;8;
57289;PMS5003;43523;53.022;-1.178;2023-06-22T01:49:12;7;6;
57289;PMS5003;43523;53.022;-1.178;2023-06-22T01:50:15;7;7;
57289;PMS5003;43523;53.022;-1.178;2023-06-22T01:51:18;8;8;
57289;PMS5003;43523;53.022;-1.178;2023-06-22T01:52:20;7;7;
57289;PMS5003;43523;53.022;-1.178;2023-06-22T01:53:23;9;7;
57289;PMS5003;43523;53.022;-1.178;2023-06-22T01:54:26;6;6;
57289;PMS5003;43523;53.022;-1.178;2023-06-22T01:55:28;6;6;
57289;PMS5003;43523;53.022;-1.178;2023-06-22T01:56:30;5;5;
57289;PMS5003;43523;53.022;-1.178;2023-06-22T01:57:33;12;9;
57289;PMS5003;43523;53.022;-1.178;2023-06-22T01:58:35;9;8;
57289;PMS5003;43523;53.022;-1.178;2023-06-22T01:59:47;8;8;
57289;PMS5003;43523;53.022;-1.178;2023-06-22T02:00:56;6;6;
57289;PMS5003;43523;53.022;-1.178;2023-06-22T02:02:07;7;7;
57289;PMS5003;43523;53.022;-1.178;2023-06-22T02:03:17;11;9;
57289;PMS5003;43523;53.022;-1.178;2023-06-22T02:04:24;11;8;
57289;PMS5003;43523;53.022;-1.178;2023-06-22T02:05:33;8;7;
57289;PMS5003;43523;53.022;-1.178;2023-06-22T02:06:39;5;5;
57289;PMS5003;43523;53.022;-1.178;2023-06-22T02:07:47;8;6;
57289;PMS5003;43523;53.022;-1.178;2023-06-22T02:08:55;8;8;
57289;PMS5003;43523;53.022;-1.178;2023-06-22T02:10:02;7;7;
57289;PMS5003;43523;53.022;-1.178;2023-06-22T02:11:09;10;9;
57289;PMS5003;43523;53.022;-1.178;2023-06-22T02:12:18;6;6;
57289;PMS5003;43523;53.022;-1.178;2023-06-22T02:13:24;10;10;
57289;PMS5003;43523;53.022;-1.178;2023-06-22T02:14:27;10;9;
57289;PMS5003;43523;53.022;-1.178;2023-06-22T02:15:30;9;9;
57289;PMS5003;43523;53.022;-1.178;2023-06-22T02:16:32;8;8;
57289;PMS5003;43523;53.022;-1.178;2023-06-22T02:17:35;8;8;
57289;PMS5003;43523;53.022;-1.178;2023-06-22T02:18:37;8;8;
57289;PMS5003;43523;53.022;-1.178;2023-06-22T02:19:40;13;10;
57289;PMS5003;43523;53.022;-1.178;2023-06-22T02:20:43;8;8;
57289;PMS5003;43523;53.022;-1.178;2023-06-22T02:21:45;9;9;
57289;PMS5003;43523;53.022;-1.178;2023-06-22T02:22:48;5;5;
57289;PMS5003;43523;53.022;-1.178;2023-06-22T02:23:50;9;9;
57289;PMS5003;43523;53.022;-1.178;2023-06-22T02:24:57;7;7;
57289;PMS5003;43523;53.022;-1.178;2023-06-22T02:26:00;9;9;
57289;PMS5003;43523;53.022;-1.178;2023-06-22T02:27:03;9;7;
57289;PMS5003;43523;53.022;-1.178;2023-06-22T02:28:06;9;8;
57289;PMS5003;43523;53.022;-1.178;2023-06-22T02:29:09;9;9;
57289;PMS5003;43523;53.022;-1.178;2023-06-22T02:30:14;7;7;
57289;PMS5003;43523;53.022;-1.178;2023-06-22T02:31:16;7;7;
57289;PMS5003;43523;53.022;-1.178;2023-06-22T02:32:19;9;7;
57289;PMS5003;43523;53.022;-1.178;2023-06-22T02:33:22;10;9;
57289;PMS5003;43523;53.022;-1.178;2023-06-22T02:34:24;6;6;
57289;PMS5003;43523;53.022;-1.178;2023-06-22T02:35:27;7;7;
57289;PMS5003;43523;53.022;-1.178;2023-06-22T02:36:29;10;10;
57289;PMS5003;43523;53.022;-1.178;2023-06-22T02:37:32;10;8;
57289;PMS5003;43523;53.022;-1.178;2023-06-22T02:38:34;8;8;
57289;PMS5003;43523;53.022;-1.178;2023-06-22T02:39:36;10;8;
57289;PMS5003;43523;53.022;-1.178;2023-06-22T02:40:39;10;8;
57289;PMS5003;43523;53.022;-1.178;2023-06-22T02:41:41;9;7;
57289;PMS5003;43523;53.022;-1.178;2023-06-22T02:42:43;5;5;
57289;PMS5003;43523;53.022;-1.178;2023-06-22T02:43:45;11;9;
57289;PMS5003;43523;53.022;-1.178;2023-06-22T02:44:54;9;9;
57289;PMS5003;43523;53.022;-1.178;2023-06-22T02:45:56;9;9;
57289;PMS5003;43523;53.022;-1.178;2023-06-22T02:46:59;9;9;
57289;PMS5003;43523;53.022;-1.178;2023-06-22T02:48:01;8;8;
57289;PMS5003;43523;53.022;-1.178;2023-06-22T02:49:05;7;7;
57289;PMS5003;43523;53.022;-1.178;2023-06-22T02:50:07;9;7;
57289;PMS5003;43523;53.022;-1.178;2023-06-22T02:51:10;9;7;
57289;PMS5003;43523;53.022;-1.178;2023-06-22T02:52:13;15;13;
57289;PMS5003;43523;53.022;-1.178;2023-06-22T02:53:15;14;10;
57289;PMS5003;43523;53.022;-1.178;2023-06-22T02:54:18;12;10;
57289;PMS5003;43523;53.022;-1.178;2023-06-22T02:55:20;8;8;
57289;PMS5003;43523;53.022;-1.178;2023-06-22T02:56:22;12;12;
57289;PMS5003;43523;53.022;-1.178;2023-06-22T02:57:25;11;8;
57289;PMS5003;43523;53.022;-1.178;2023-06-22T02:58:28;8;6;
57289;PMS5003;43523;53.022;-1.178;2023-06-22T02:59:30;8;8;
57289;PMS5003;43523;53.022;-1.178;2023-06-22T03:00:32;7;7;
57289;PMS5003;43523;53.022;-1.178;2023-06-22T03:01:35;11;7;
57289;PMS5003;43523;53.022;-1.178;2023-06-22T03:02:38;9;7;
57289;PMS5003;43523;53.022;-1.178;2023-06-22T03:03:40;9;9;
57289;PMS5003;43523;53.022;-1.178;2023-06-22T03:04:42;8;6;
57289;PMS5003;43523;53.022;-1.178;2023-06-22T03:05:45;13;12;
57289;PMS5003;43523;53.022;-1.178;2023-06-22T03:06:48;13;12;
57289;PMS5003;43523;53.022;-1.178;2023-06-22T03:07:50;10;8;
57289;PMS5003;43523;53.022;-1.178;2023-06-22T03:08:52;11;8;
57289;PMS5003;43523;53.022;-1.178;2023-06-22T03:09:55;8;7;
57289;PMS5003;43523;53.022;-1.178;2023-06-22T03:10:57;9;9;
57289;PMS5003;43523;53.022;-1.178;2023-06-22T03:11:59;8;8;
57289;PMS5003;43523;53.022;-1.178;2023-06-22T03:13:01;11;9;
57289;PMS5003;43523;53.022;-1.178;2023-06-22T03:14:04;9;8;
57289;PMS5003;43523;53.022;-1.178;2023-06-22T03:15:07;10;9;
57289;PMS5003;43523;53.022;-1.178;2023-06-22T03:16:12;8;7;
57289;PMS5003;43523;53.022;-1.178;2023-06-22T03:17:14;9;9;
57289;PMS5003;43523;53.022;-1.178;2023-06-22T03:18:16;10;10;
57289;PMS5003;43523;53.022;-1.178;2023-06-22T03:19:19;11;9;
57289;PMS5003;43523;53.022;-1.178;2023-06-22T03:20:21;12;10;
57289;PMS5003;43523;53.022;-1.178;2023-06-22T03:21:24;10;10;
57289;PMS5003;43523;53.022;-1.178;2023-06-22T03:22:31;7;7;
57289;PMS5003;43523;53.022;-1.178;2023-06-22T03:23:33;9;8;
57289;PMS5003;43523;53.022;-1.178;2023-06-22T03:24:35;9;9;
57289;PMS5003;43523;53.022;-1.178;2023-06-22T03:25:38;9;9;
57289;PMS5003;43523;53.022;-1.178;2023-06-22T03:26:40;15;11;
57289;PMS5003;43523;53.022;-1.178;2023-06-22T03:27:42;8;8;
57289;PMS5003;43523;53.022;-1.178;2023-06-22T03:28:45;11;8;
57289;PMS5003;43523;53.022;-1.178;2023-06-22T03:29:47;11;8;
57289;PMS5003;43523;53.022;-1.178;2023-06-22T03:30:49;11;9;
57289;PMS5003;43523;53.022;-1.178;2023-06-22T03:31:51;9;7;
57289;PMS5003;43523;53.022;-1.178;2023-06-22T03:32:54;10;8;
57289;PMS5003;43523;53.022;-1.178;2023-06-22T03:33:56;11;8;
57289;PMS5003;43523;53.022;-1.178;2023-06-22T03:34:59;12;10;
57289;PMS5003;43523;53.022;-1.178;2023-06-22T03:36:02;11;11;
57289;PMS5003;43523;53.022;-1.178;2023-06-22T03:37:05;13;10;
57289;PMS5003;43523;53.022;-1.178;2023-06-22T03:38:08;10;9;
57289;PMS5003;43523;53.022;-1.178;2023-06-22T03:39:10;14;13;
57289;PMS5003;43523;53.022;-1.178;2023-06-22T03:40:12;11;11;
57289;PMS5003;43523;53.022;-1.178;2023-06-22T03:41:14;10;8;
57289;PMS5003;43523;53.022;-1.178;2023-06-22T03:42:17;12;10;
57289;PMS5003;43523;53.022;-1.178;2023-06-22T03:43:19;10;10;
57289;PMS5003;43523;53.022;-1.178;2023-06-22T03:44:21;9;9;
57289;PMS5003;43523;53.022;-1.178;2023-06-22T03:45:24;13;11;
57289;PMS5003;43523;53.022;-1.178;2023-06-22T03:46:26;11;10;
57289;PMS5003;43523;53.022;-1.178;2023-06-22T03:47:33;10;10;
57289;PMS5003;43523;53.022;-1.178;2023-06-22T03:48:36;11;11;
57289;PMS5003;43523;53.022;-1.178;2023-06-22T03:49:39;9;9;
57289;PMS5003;43523;53.022;-1.178;2023-06-22T03:50:41;10;10;
57289;PMS5003;43523;53.022;-1.178;2023-06-22T03:51:43;10;10;
57289;PMS5003;43523;53.022;-1.178;2023-06-22T03:52:45;21;15;
57289;PMS5003;43523;53.022;-1.178;2023-06-22T03:53:48;16;12;
57289;PMS5003;43523;53.022;-1.178;2023-06-22T03:54:50;17;13;
57289;PMS5003;43523;53.022;-1.178;2023-06-22T03:55:52;11;10;
57289;PMS5003;43523;53.022;-1.178;2023-06-22T03:56:55;13;13;
57289;PMS5003;43523;53.022;-1.178;2023-06-22T03:57:59;13;10;
57289;PMS5003;43523;53.022;-1.178;2023-06-22T03:59:01;16;12;
57289;PMS5003;43523;53.022;-1.178;2023-06-22T04:00:04;13;13;
57289;PMS5003;43523;53.022;-1.178;2023-06-22T04:01:07;16;16;
57289;PMS5003;43523;53.022;-1.178;2023-06-22T04:02:09;16;13;
57289;PMS5003;43523;53.022;-1.178;2023-06-22T04:03:12;11;10;
57289;PMS5003;43523;53.022;-1.178;2023-06-22T04:04:15;16;14;
57289;PMS5003;43523;53.022;-1.178;2023-06-22T04:05:17;18;14;
57289;PMS5003;43523;53.022;-1.178;2023-06-22T04:06:19;16;15;
57289;PMS5003;43523;53.022;-1.178;2023-06-22T04:07:22;15;13;
57289;PMS5003;43523;53.022;-1.178;2023-06-22T04:08:23;15;13;
57289;PMS5003;43523;53.022;-1.178;2023-06-22T04:09:26;16;15;
57289;PMS5003;43523;53.022;-1.178;2023-06-22T04:10:28;15;15;
57289;PMS5003;43523;53.022;-1.178;2023-06-22T04:11:31;17;16;
57289;PMS5003;43523;53.022;-1.178;2023-06-22T04:12:34;16;14;
57289;PMS5003;43523;53.022;-1.178;2023-06-22T04:13:36;18;14;
57289;PMS5003;43523;53.022;-1.178;2023-06-22T04:14:39;16;15;
57289;PMS5003;43523;53.022;-1.178;2023-06-22T04:15:41;19;18;
57289;PMS5003;43523;53.022;-1.178;2023-06-22T04:16:43;14;14;
57289;PMS5003;43523;53.022;-1.178;2023-06-22T04:17:45;16;13;
57289;PMS5003;43523;53.022;-1.178;2023-06-22T04:18:48;15;13;
57289;PMS5003;43523;53.022;-1.178;2023-06-22T04:19:50;18;17;
57289;PMS5003;43523;53.022;-1.178;2023-06-22T04:20:52;16;14;
57289;PMS5003;43523;53.022;-1.178;2023-06-22T04:21:55;14;12;
57289;PMS5003;43523;53.022;-1.178;2023-06-22T04:23:02;18;14;
57289;PMS5003;43523;53.022;-1.178;2023-06-22T04:24:05;20;15;
57289;PMS5003;43523;53.022;-1.178;2023-06-22T04:25:07;19;14;
57289;PMS5003;43523;53.022;-1.178;2023-06-22T04:26:10;15;15;
57289;PMS5003;43523;53.022;-1.178;2023-06-22T04:27:14;17;14;
57289;PMS5003;43523;53.022;-1.178;2023-06-22T04:28:15;19;17;
57289;PMS5003;43523;53.022;-1.178;2023-06-22T04:29:18;13;12;
57289;PMS5003;43523;53.022;-1.178;2023-06-22T04:30:20;14;12;
57289;PMS5003;43523;53.022;-1.178;2023-06-22T04:31:22;20;16;
57289;PMS5003;43523;53.022;-1.178;2023-06-22T04:32:25;14;14;
57289;PMS5003;43523;53.022;-1.178;2023-06-22T04:33:27;16;15;
57289;PMS5003;43523;53.022;-1.178;2023-06-22T04:34:29;14;10;
57289;PMS5003;43523;53.022;-1.178;2023-06-22T04:35:32;13;11;
57289;PMS5003;43523;53.022;-1.178;2023-06-22T04:36:35;19;16;
57289;PMS5003;43523;53.022;-1.178;2023-06-22T04:37:38;19;17;
57289;PMS5003;43523;53.022;-1.178;2023-06-22T04:38:40;15;13;
57289;PMS5003;43523;53.022;-1.178;2023-06-22T04:39:43;12;10;
57289;PMS5003;43523;53.022;-1.178;2023-06-22T04:40:46;15;15;
57289;PMS5003;43523;53.022;-1.178;2023-06-22T04:41:48;17;12;
57289;PMS5003;43523;53.022;-1.178;2023-06-22T04:42:51;15;13;
57289;PMS5003;43523;53.022;-1.178;2023-06-22T04:43:55;16;15;
57289;PMS5003;43523;53.022;-1.178;2023-06-22T04:44:58;11;10;
57289;PMS5003;43523;53.022;-1.178;2023-06-22T04:46:00;13;12;
57289;PMS5003;43523;53.022;-1.178;2023-06-22T04:47:02;20;20;
57289;PMS5003;43523;53.022;-1.178;2023-06-22T04:48:05;14;14;
57289;PMS5003;43523;53.022;-1.178;2023-06-22T04:49:08;13;12;
57289;PMS5003;43523;53.022;-1.178;2023-06-22T04:50:12;17;16;
57289;PMS5003;43523;53.022;-1.178;2023-06-22T04:51:14;13;12;
57289;PMS5003;43523;53.022;-1.178;2023-06-22T04:52:17;13;13;
57289;PMS5003;43523;53.022;-1.178;2023-06-22T04:53:19;16;14;
57289;PMS5003;43523;53.022;-1.178;2023-06-22T04:54:22;17;17;
57289;PMS5003;43523;53.022;-1.178;2023-06-22T04:55:24;18;13;
57289;PMS5003;43523;53.022;-1.178;2023-06-22T04:56:26;13;13;
57289;PMS5003;43523;53.022;-1.178;2023-06-22T04:57:29;14;13;
57289;PMS5003;43523;53.022;-1.178;2023-06-22T04:58:31;13;10;
57289;PMS5003;43523;53.022;-1.178;2023-06-22T04:59:34;12;10;
57289;PMS5003;43523;53.022;-1.178;2023-06-22T05:00:36;17;12;
57289;PMS5003;43523;53.022;-1.178;2023-06-22T05:01:40;19;15;
57289;PMS5003;43523;53.022;-1.178;2023-06-22T05:02:42;16;12;
57289;PMS5003;43523;53.022;-1.178;2023-06-22T05:03:44;11;8;
57289;PMS5003;43523;53.022;-1.178;2023-06-22T05:04:46;14;13;
57289;PMS5003;43523;53.022;-1.178;2023-06-22T05:05:49;13;12;
57289;PMS5003;43523;53.022;-1.178;2023-06-22T05:06:52;16;12;
57289;PMS5003;43523;53.022;-1.178;2023-06-22T05:07:56;13;13;
57289;PMS5003;43523;53.022;-1.178;2023-06-22T05:09:02;13;11;
57289;PMS5003;43523;53.022;-1.178;2023-06-22T05:10:05;14;14;
57289;PMS5003;43523;53.022;-1.178;2023-06-22T05:11:08;12;11;
57289;PMS5003;43523;53.022;-1.178;2023-06-22T05:12:10;16;13;
57289;PMS5003;43523;53.022;-1.178;2023-06-22T05:13:13;13;11;
57289;PMS5003;43523;53.022;-1.178;2023-06-22T05:14:16;14;12;
57289;PMS5003;43523;53.022;-1.178;2023-06-22T05:15:19;12;12;
57289;PMS5003;43523;53.022;-1.178;2023-06-22T05:16:22;12;10;
57289;PMS5003;43523;53.022;-1.178;2023-06-22T05:17:25;21;14;
57289;PMS5003;43523;53.022;-1.178;2023-06-22T05:18:28;18;15;
57289;PMS5003;43523;53.022;-1.178;2023-06-22T05:19:31;18;17;
57289;PMS5003;43523;53.022;-1.178;2023-06-22T05:20:33;11;11;
57289;PMS5003;43523;53.022;-1.178;2023-06-22T05:21:36;14;14;
57289;PMS5003;43523;53.022;-1.178;2023-06-22T05:22:38;17;14;
57289;PMS5003;43523;53.022;-1.178;2023-06-22T05:23:42;15;14;
57289;PMS5003;43523;53.022;-1.178;2023-06-22T05:24:44;14;14;
57289;PMS5003;43523;53.022;-1.178;2023-06-22T05:25:51;14;14;
57289;PMS5003;43523;53.022;-1.178;2023-06-22T05:26:54;19;17;
57289;PMS5003;43523;53.022;-1.178;2023-06-22T05:27:56;17;14;
57289;PMS5003;43523;53.022;-1.178;2023-06-22T05:29:00;19;15;
57289;PMS5003;43523;53.022;-1.178;2023-06-22T05:30:04;15;14;
57289;PMS5003;43523;53.022;-1.178;2023-06-22T05:31:07;16;13;
57289;PMS5003;43523;53.022;-1.178;2023-06-22T05:32:09;18;15;
57289;PMS5003;43523;53.022;-1.178;2023-06-22T05:33:16;13;13;
57289;PMS5003;43523;53.022;-1.178;2023-06-22T05:34:19;15;14;
57289;PMS5003;43523;53.022;-1.178;2023-06-22T05:35:21;14;14;
57289;PMS5003;43523;53.022;-1.178;2023-06-22T05:36:23;15;13;
57289;PMS5003;43523;53.022;-1.178;2023-06-22T05:37:25;15;13;
57289;PMS5003;43523;53.022;-1.178;2023-06-22T05:38:32;15;15;
57289;PMS5003;43523;53.022;-1.178;2023-06-22T05:39:35;16;12;
57289;PMS5003;43523;53.022;-1.178;2023-06-22T05:40:37;23;19;
57289;PMS5003;43523;53.022;-1.178;2023-06-22T05:41:41;19;18;
57289;PMS5003;43523;53.022;-1.178;2023-06-22T05:42:44;17;15;
57289;PMS5003;43523;53.022;-1.178;2023-06-22T05:43:46;17;14;
57289;PMS5003;43523;53.022;-1.178;2023-06-22T05:44:48;16;14;
57289;PMS5003;43523;53.022;-1.178;2023-06-22T05:45:50;20;14;
57289;PMS5003;43523;53.022;-1.178;2023-06-22T05:46:52;18;15;
57289;PMS5003;43523;53.022;-1.178;2023-06-22T05:47:55;19;18;
57289;PMS5003;43523;53.022;-1.178;2023-06-22T05:48:59;12;12;
57289;PMS5003;43523;53.022;-1.178;2023-06-22T05:50:01;16;14;
57289;PMS5003;43523;53.022;-1.178;2023-06-22T05:51:04;16;15;
57289;PMS5003;43523;53.022;-1.178;2023-06-22T05:52:07;16;16;
57289;PMS5003;43523;53.022;-1.178;2023-06-22T05:53:09;24;20;
57289;PMS5003;43523;53.022;-1.178;2023-06-22T05:54:15;16;14;
57289;PMS5003;43523;53.022;-1.178;2023-06-22T05:55:21;19;17;
57289;PMS5003;43523;53.022;-1.178;2023-06-22T05:56:26;23;17;
57289;PMS5003;43523;53.022;-1.178;2023-06-22T05:57:30;22;20;
57289;PMS5003;43523;53.022;-1.178;2023-06-22T05:58:37;14;14;
57289;PMS5003;43523;53.022;-1.178;2023-06-22T05:59:43;16;13;
57289;PMS5003;43523;53.022;-1.178;2023-06-22T06:00:51;11;11;
57289;PMS5003;43523;53.022;-1.178;2023-06-22T06:01:57;20;16;
57289;PMS5003;43523;53.022;-1.178;2023-06-22T06:03:03;18;16;
57289;PMS5003;43523;53.022;-1.178;2023-06-22T06:04:08;19;18;
57289;PMS5003;43523;53.022;-1.178;2023-06-22T06:05:14;21;19;
57289;PMS5003;43523;53.022;-1.178;2023-06-22T06:06:21;20;17;
57289;PMS5003;43523;53.022;-1.178;2023-06-22T06:07:26;16;16;
57289;PMS5003;43523;53.022;-1.178;2023-06-22T06:08:32;18;16;
57289;PMS5003;43523;53.022;-1.178;2023-06-22T06:09:39;22;20;
57289;PMS5003;43523;53.022;-1.178;2023-06-22T06:10:45;20;16;
57289;PMS5003;43523;53.022;-1.178;2023-06-22T06:11:51;21;19;
57289;PMS5003;43523;53.022;-1.178;2023-06-22T06:12:56;18;14;
57289;PMS5003;43523;53.022;-1.178;2023-06-22T06:14:02;14;14;
57289;PMS5003;43523;53.022;-1.178;2023-06-22T06:15:08;22;19;
57289;PMS5003;43523;53.022;-1.178;2023-06-22T06:16:16;18;17;
57289;PMS5003;43523;53.022;-1.178;2023-06-22T06:17:22;21;18;
57289;PMS5003;43523;53.022;-1.178;2023-06-22T06:18:28;18;18;
57289;PMS5003;43523;53.022;-1.178;2023-06-22T06:19:33;22;19;
57289;PMS5003;43523;53.022;-1.178;2023-06-22T06:20:39;18;16;
57289;PMS5003;43523;53.022;-1.178;2023-06-22T06:21:45;14;14;
57289;PMS5003;43523;53.022;-1.178;2023-06-22T06:22:50;13;12;
57289;PMS5003;43523;53.022;-1.178;2023-06-22T06:23:56;17;15;
57289;PMS5003;43523;53.022;-1.178;2023-06-22T06:25:00;14;11;
57289;PMS5003;43523;53.022;-1.178;2023-06-22T06:26:06;14;12;
57289;PMS5003;43523;53.022;-1.178;2023-06-22T06:27:12;15;12;
57289;PMS5003;43523;53.022;-1.178;2023-06-22T06:28:19;21;18;
57289;PMS5003;43523;53.022;-1.178;2023-06-22T06:29:27;21;17;
57289;PMS5003;43523;53.022;-1.178;2023-06-22T06:30:33;14;13;
57289;PMS5003;43523;53.022;-1.178;2023-06-22T06:31:40;16;16;
57289;PMS5003;43523;53.022;-1.178;2023-06-22T06:32:45;20;16;
57289;PMS5003;43523;53.022;-1.178;2023-06-22T06:33:54;16;13;
57289;PMS5003;43523;53.022;-1.178;2023-06-22T06:35:01;14;12;
57289;PMS5003;43523;53.022;-1.178;2023-06-22T06:36:06;14;13;
57289;PMS5003;43523;53.022;-1.178;2023-06-22T06:37:12;18;17;
57289;PMS5003;43523;53.022;-1.178;2023-06-22T06:38:18;15;10;
57289;PMS5003;43523;53.022;-1.178;2023-06-22T06:39:23;17;12;
57289;PMS5003;43523;53.022;-1.178;2023-06-22T06:40:29;17;13;
57289;PMS5003;43523;53.022;-1.178;2023-06-22T06:41:37;17;15;
57289;PMS5003;43523;53.022;-1.178;2023-06-22T06:42:43;16;13;
57289;PMS5003;43523;53.022;-1.178;2023-06-22T06:43:51;14;11;
57289;PMS5003;43523;53.022;-1.178;2023-06-22T06:44:57;17;16;
57289;PMS5003;43523;53.022;-1.178;2023-06-22T06:46:04;17;13;
57289;PMS5003;43523;53.022;-1.178;2023-06-22T06:47:10;13;11;
57289;PMS5003;43523;53.022;-1.178;2023-06-22T06:48:18;15;12;
57289;PMS5003;43523;53.022;-1.178;2023-06-22T06:49:23;10;10;
57289;PMS5003;43523;53.022;-1.178;2023-06-22T06:50:29;11;11;
57289;PMS5003;43523;53.022;-1.178;2023-06-22T06:51:34;9;9;
57289;PMS5003;43523;53.022;-1.178;2023-06-22T06:52:41;14;11;
57289;PMS5003;43523;53.022;-1.178;2023-06-22T06:53:49;8;7;
57289;PMS5003;43523;53.022;-1.178;2023-06-22T06:54:55;10;8;
57289;PMS5003;43523;53.022;-1.178;2023-06-22T06:56:00;7;7;
57289;PMS5003;43523;53.022;-1.178;2023-06-22T06:57:07;10;10;
57289;PMS5003;43523;53.022;-1.178;2023-06-22T06:58:14;9;7;
57289;PMS5003;43523;53.022;-1.178;2023-06-22T06:59:20;11;9;
57289;PMS5003;43523;53.022;-1.178;2023-06-22T07:00:26;8;7;
57289;PMS5003;43523;53.022;-1.178;2023-06-22T07:01:31;8;8;
57289;PMS5003;43523;53.022;-1.178;2023-06-22T07:02:38;11;11;
57289;PMS5003;43523;53.022;-1.178;2023-06-22T07:03:44;10;8;